Washington, DC (20215)

1:27 PM EDT on June 27, 2017 (GMT -0400)
The Washington Post | | Change Station

Elev 151 ft 38.90 °N, 77.03 °W | Updated 7 seconds ago

Mostly Cloudy
Mostly Cloudy
78.4 °F
Feels Like 79 °F
N
6.9
Wind Variable Wind from WSW
Gusts 10.0 mph

Today
High -- | Low -- °F
--% Chance of Precip.
Yesterday
High -- | Low -- °F
Precip. -- in
Pressure 30.01 in
Visibility 10.0 miles
Clouds Mostly Cloudy 7000 ft
Heat Index 79 °F
Dew Point 50 °F
Humidity 37%
Rainfall 0.00 in
Snow Depth Not available.
5:44 AM 8:37 PM
Waxing Crescent, 18% visible
METAR KDCA 271652Z 28007G18KT 230V300 10SM BKN070 27/09 A3001 RMK AO2 SLP163 T02670094
Pressure 30.01 in
Visibility 10.0 miles
Clouds Mostly Cloudy 7000 ft
Heat Index 79 °F
Dew Point 50 °F
Humidity 37%
Rainfall 0.00 in
Snow Depth Not available.
5:44 AM 8:37 PM
Waxing Crescent, 18% visible
METAR KDCA 271652Z 28007G18KT 230V300 10SM BKN070 27/09 A3001 RMK AO2 SLP163 T02670094

Get Severe Weather Alerts

Thanks for signing up!

Be on the lookout for a verification email in your inbox.

You'll start receiving the daily forecast at 6 AM.

×

10-Day Weather Forecast

Almanac

Astronomy

Jun. 27, 2017 Rise Set
Actual Time
Civil Twilight
Nautical Twilight
Astronomical Twilight
Moon
Length of Visible Light
Length of Day
Tomorrow will be .
, % of the Moon is Illuminated

Today's Extremes

State Highs State Lows

Community

WunderPhotos

Category 6

Welcome to Category 6. This is the collective home for Weather Underground's featured writeups by Dr. Jeff Masters (right), Bob Henson (left), Chris Burt, and other regular contributors.

Nearby

Air Quality

  Air Quality AQ Index Pollutant
Not available.

Snow Depth

Station Depth Elevation

Earthquake Activity

City Distance Mag. Time & Date
Minimum magnitude displayed is 2.5.

Coastal Water Temperatures

Place Temperature

Stations

Nearby Weather Stations

Station Location Temp. Windchill Dew Point Humidity Wind Precip. Elev Updated Type
                   

Watches & Warnings

There are currently no watches in effect.